createdAt,value
2022-10-16T00:00:13.594Z,3.60
2022-10-16T00:03:11.194Z,4.00
2022-10-16T00:06:08.828Z,3.40
2022-10-16T00:09:05.747Z,3.40
2022-10-16T00:12:04.925Z,1.60
2022-10-16T00:15:01.744Z,2.40
2022-10-16T00:17:59.699Z,3.80
2022-10-16T00:20:56.916Z,2.60
2022-10-16T00:24:12.961Z,2.00
2022-10-16T00:27:09.921Z,2.00
2022-10-16T00:30:09.285Z,2.00
2022-10-16T00:33:06.983Z,2.00
2022-10-16T00:36:04.641Z,3.00
2022-10-16T00:39:02.904Z,2.00
2022-10-16T00:42:00.594Z,3.00
2022-10-16T00:44:58.103Z,2.00
2022-10-16T00:47:55.301Z,3.00
2022-10-16T00:50:52.583Z,2.20
2022-10-16T00:53:49.804Z,2.00
2022-10-16T00:56:46.958Z,2.80
2022-10-16T00:59:43.604Z,2.40
2022-10-16T01:02:40.292Z,2.00
2022-10-16T01:05:45.086Z,6.00
2022-10-16T01:09:13.541Z,3.00
2022-10-16T01:12:12.576Z,4.40
2022-10-16T01:15:21.691Z,5.40
2022-10-16T01:18:45.543Z,2.60
2022-10-16T01:21:44.627Z,3.40
2022-10-16T01:24:49.992Z,4.00
2022-10-16T01:27:47.814Z,3.40
2022-10-16T01:30:44.904Z,5.60
2022-10-16T01:33:44.199Z,3.40
2022-10-16T01:36:43.732Z,6.00
2022-10-16T01:39:41.081Z,6.40
2022-10-16T01:42:40.471Z,6.40
2022-10-16T01:45:37.814Z,4.80
2022-10-16T01:48:34.856Z,7.40
2022-10-16T01:51:31.990Z,4.40
2022-10-16T01:54:28.914Z,8.40
2022-10-16T01:57:26.796Z,9.80
2022-10-16T02:00:23.741Z,3.00
2022-10-16T02:03:20.656Z,7.80
2022-10-16T02:06:17.509Z,6.80
2022-10-16T02:09:17.896Z,10.60
2022-10-16T02:12:25.760Z,7.60
2022-10-16T02:15:22.755Z,11.80
2022-10-16T02:18:19.979Z,13.40
2022-10-16T02:21:20.344Z,11.00
2022-10-16T02:24:28.411Z,12.20
2022-10-16T02:27:37.991Z,17.20
2022-10-16T02:30:36.458Z,12.60
2022-10-16T02:33:33.423Z,10.80
2022-10-16T02:36:30.837Z,13.40
2022-10-16T02:39:30.754Z,17.20
2022-10-16T02:42:34.634Z,16.80
2022-10-16T02:45:31.749Z,16.80
2022-10-16T02:48:28.612Z,14.20
2022-10-16T02:51:25.535Z,13.00
2022-10-16T02:54:22.588Z,14.20
2022-10-16T02:57:20.134Z,19.80
2022-10-16T03:00:17.514Z,18.80
2022-10-16T03:03:14.826Z,15.40
2022-10-16T03:06:12.056Z,16.80
2022-10-16T03:09:09.002Z,16.80
2022-10-16T03:12:06.743Z,14.20
2022-10-16T03:15:04.656Z,23.40
2022-10-16T03:18:02.052Z,14.60
2022-10-16T03:20:58.785Z,16.80
2022-10-16T03:23:55.723Z,18.00
2022-10-16T03:26:52.891Z,16.20
2022-10-16T03:29:50.060Z,18.20
2022-10-16T03:32:46.880Z,12.00
2022-10-16T03:35:43.762Z,13.80
2022-10-16T03:38:40.916Z,16.60
2022-10-16T03:41:37.859Z,17.60
2022-10-16T03:44:35.285Z,23.80
2022-10-16T03:47:34.110Z,21.40
2022-10-16T03:50:30.928Z,19.20
2022-10-16T03:53:28.063Z,17.80
2022-10-16T03:56:25.002Z,22.00
2022-10-16T03:59:22.035Z,15.40
2022-10-16T04:02:18.960Z,17.80
2022-10-16T04:05:15.890Z,15.20
2022-10-16T04:08:12.761Z,16.80
2022-10-16T04:11:10.099Z,14.20
2022-10-16T04:14:07.204Z,18.40
2022-10-16T04:17:03.946Z,18.40
2022-10-16T04:20:00.816Z,11.20
2022-10-16T04:22:58.167Z,17.20
2022-10-16T04:25:55.131Z,16.00
2022-10-16T04:28:52.047Z,17.20
2022-10-16T04:31:48.905Z,12.40
2022-10-16T04:34:45.733Z,13.40
2022-10-16T04:37:42.501Z,16.40
2022-10-16T04:40:40.016Z,15.20
2022-10-16T04:43:38.167Z,9.80
2022-10-16T04:46:34.747Z,7.60
2022-10-16T04:49:32.053Z,12.40
2022-10-16T04:52:29.242Z,12.40
2022-10-16T04:55:25.741Z,11.40
2022-10-16T04:58:22.862Z,9.40
2022-10-16T05:01:20.055Z,7.40
2022-10-16T05:04:16.876Z,8.40
2022-10-16T05:07:13.972Z,8.60
2022-10-16T05:10:10.922Z,8.60
2022-10-16T05:13:07.801Z,4.40
2022-10-16T05:16:04.907Z,7.80
2022-10-16T05:19:26.366Z,7.20
2022-10-16T05:22:18.860Z,12.40
2022-10-16T05:25:16.358Z,11.80
2022-10-16T05:28:13.909Z,10.00
2022-10-16T05:31:11.049Z,8.80
2022-10-16T05:34:07.877Z,11.80
2022-10-16T05:37:04.887Z,10.60
2022-10-16T05:40:01.756Z,8.20
2022-10-16T05:42:59.534Z,7.00
2022-10-16T05:46:01.210Z,9.00
2022-10-16T05:48:58.003Z,9.60
2022-10-16T05:51:54.739Z,9.60
2022-10-16T05:54:52.067Z,9.00
2022-10-16T05:57:48.988Z,8.20
2022-10-16T06:00:45.778Z,8.00
2022-10-16T06:03:43.146Z,7.40
2022-10-16T06:06:40.127Z,10.80
2022-10-16T06:09:36.987Z,9.00
2022-10-16T06:12:34.088Z,9.40
2022-10-16T06:15:31.029Z,6.60
2022-10-16T06:18:28.586Z,10.20
2022-10-16T06:21:26.387Z,9.00
2022-10-16T06:24:23.835Z,11.20
2022-10-16T06:27:21.237Z,11.80
2022-10-16T06:30:17.865Z,6.00
2022-10-16T06:33:15.195Z,8.80
2022-10-16T06:36:14.880Z,8.60
2022-10-16T06:39:12.048Z,12.80
2022-10-16T06:42:09.233Z,9.00
2022-10-16T06:45:07.389Z,11.00
2022-10-16T06:48:04.818Z,10.20
2022-10-16T06:51:08.154Z,8.20
2022-10-16T06:54:05.444Z,8.00
2022-10-16T06:57:02.845Z,7.60
2022-10-16T07:00:00.168Z,10.00
2022-10-16T07:02:57.198Z,7.60
2022-10-16T07:05:54.022Z,9.00
2022-10-16T07:08:51.009Z,6.60
2022-10-16T07:11:47.799Z,8.00
2022-10-16T07:14:45.211Z,7.20
2022-10-16T07:17:41.908Z,7.20
2022-10-16T07:20:39.051Z,6.20
2022-10-16T07:23:36.214Z,7.00
2022-10-16T07:26:35.632Z,7.40
2022-10-16T07:29:33.352Z,6.60
2022-10-16T07:32:31.111Z,6.20
2022-10-16T07:35:31.612Z,5.80
2022-10-16T07:38:29.038Z,6.40
2022-10-16T07:41:26.156Z,2.00
2022-10-16T07:44:23.080Z,4.00
2022-10-16T07:47:20.032Z,6.00
2022-10-16T07:50:16.900Z,4.80
2022-10-16T07:53:14.388Z,5.40
2022-10-16T07:56:11.100Z,4.80
2022-10-16T07:59:08.346Z,4.00
2022-10-16T08:02:05.443Z,5.20
2022-10-16T08:05:02.927Z,3.00
2022-10-16T08:08:00.540Z,2.80
2022-10-16T08:10:58.151Z,3.60
2022-10-16T08:13:54.924Z,3.80
2022-10-16T08:16:52.129Z,2.20
2022-10-16T08:19:49.096Z,3.80
2022-10-16T08:22:45.937Z,2.00
2022-10-16T08:25:42.979Z,2.40
2022-10-16T08:28:40.114Z,3.60
2022-10-16T08:31:37.044Z,1.00
2022-10-16T08:34:34.038Z,3.40
2022-10-16T08:37:32.098Z,3.00
2022-10-16T08:40:33.114Z,2.00
2022-10-16T08:43:36.925Z,3.00
2022-10-16T08:47:04.487Z,2.40
2022-10-16T08:50:06.968Z,3.60
2022-10-16T08:53:05.067Z,3.40
2022-10-16T08:56:02.233Z,4.00
2022-10-16T08:59:01.571Z,2.40
2022-10-16T09:02:00.292Z,4.60
2022-10-16T09:05:07.138Z,1.80
2022-10-16T09:08:09.184Z,3.20
2022-10-16T09:11:47.079Z,2.00
2022-10-16T09:14:59.197Z,3.20
2022-10-16T09:18:16.135Z,2.80
2022-10-16T09:21:41.053Z,1.20
2022-10-16T09:24:38.203Z,2.00
2022-10-16T09:27:35.108Z,1.20
2022-10-16T09:30:33.193Z,4.00
2022-10-16T09:33:31.807Z,2.40
2022-10-16T09:36:29.492Z,1.20
2022-10-16T09:39:26.530Z,2.00
2022-10-16T09:42:35.880Z,2.00
2022-10-16T09:45:33.092Z,2.00
2022-10-16T09:48:38.910Z,1.20
2022-10-16T09:51:37.735Z,2.00
2022-10-16T09:54:35.233Z,2.20
2022-10-16T09:57:32.147Z,2.00
2022-10-16T10:00:29.104Z,2.20
2022-10-16T10:03:44.229Z,2.80
2022-10-16T10:06:48.751Z,2.60
2022-10-16T10:09:46.362Z,1.20
2022-10-16T10:12:43.405Z,3.60
2022-10-16T10:15:42.684Z,2.00
2022-10-16T10:18:40.303Z,1.60
2022-10-16T10:21:39.279Z,0.60
2022-10-16T10:24:36.015Z,1.60
2022-10-16T10:27:56.347Z,2.80
2022-10-16T10:31:04.583Z,1.60
2022-10-16T10:34:01.873Z,1.40
2022-10-16T10:37:25.236Z,2.60
2022-10-16T10:40:36.095Z,1.80
2022-10-16T10:44:18.122Z,2.00
2022-10-16T10:47:34.125Z,1.40
2022-10-16T10:50:50.907Z,1.60
2022-10-16T10:53:50.618Z,1.00
2022-10-16T10:56:57.360Z,2.20
2022-10-16T10:59:57.222Z,1.00
2022-10-16T11:03:21.789Z,0.00
2022-10-16T11:06:25.682Z,2.40
2022-10-16T11:09:25.864Z,1.80
2022-10-16T11:12:45.259Z,1.00
2022-10-16T11:15:42.547Z,1.00
2022-10-16T11:19:10.832Z,0.00
2022-10-16T11:22:26.843Z,1.00
2022-10-16T11:25:31.623Z,2.00
2022-10-16T11:28:47.299Z,4.00
2022-10-16T11:31:53.799Z,1.00
2022-10-16T11:35:03.803Z,1.40
2022-10-16T11:38:01.015Z,2.00
2022-10-16T11:41:20.551Z,1.00
2022-10-16T11:44:22.479Z,2.80
2022-10-16T11:51:37.013Z,3.00
2022-10-16T11:54:49.470Z,1.60
2022-10-16T11:57:58.552Z,1.20
2022-10-16T12:00:57.671Z,1.00
2022-10-16T12:03:58.229Z,1.60
2022-10-16T12:07:09.821Z,4.00
2022-10-16T12:10:27.606Z,1.60
2022-10-16T12:13:28.060Z,1.60
2022-10-16T12:16:25.424Z,2.20
2022-10-16T12:19:23.141Z,4.00
2022-10-16T12:22:20.327Z,1.80
2022-10-16T12:25:25.720Z,1.40
2022-10-16T12:28:26.703Z,1.00
2022-10-16T12:31:25.277Z,1.00
2022-10-16T12:34:44.024Z,3.40
2022-10-16T12:37:41.499Z,2.20
2022-10-16T12:40:39.116Z,0.60
2022-10-16T12:43:40.068Z,0.00
2022-10-16T12:46:39.928Z,0.40
2022-10-16T12:49:39.160Z,1.20
2022-10-16T12:52:38.861Z,3.80
2022-10-16T12:55:44.623Z,1.00
2022-10-16T12:58:52.964Z,2.00
2022-10-16T13:02:19.337Z,1.00
2022-10-16T13:05:30.662Z,2.00
2022-10-16T13:08:31.274Z,1.00
2022-10-16T13:11:39.981Z,1.20
2022-10-16T13:15:08.863Z,4.00
2022-10-16T13:18:24.511Z,2.40
2022-10-16T13:21:38.132Z,1.00
2022-10-16T13:24:43.859Z,0.00
2022-10-16T13:27:57.545Z,2.20
2022-10-16T13:30:55.261Z,2.60
2022-10-16T13:33:56.661Z,1.00
2022-10-16T13:36:53.949Z,2.40
2022-10-16T13:39:54.036Z,2.00
2022-10-16T13:42:52.134Z,4.00
2022-10-16T13:45:56.830Z,0.80
2022-10-16T13:49:12.603Z,3.00
2022-10-16T13:52:20.769Z,2.80
2022-10-16T13:55:19.443Z,2.60
2022-10-16T13:58:16.180Z,1.00
2022-10-16T14:01:28.561Z,2.60
2022-10-16T14:04:30.847Z,1.60
2022-10-16T14:07:32.712Z,2.20
2022-10-16T14:10:33.360Z,3.60
2022-10-16T14:13:35.611Z,0.20
2022-10-16T14:16:33.089Z,2.00
2022-10-16T14:19:31.008Z,3.40
2022-10-16T14:22:30.637Z,5.40
2022-10-16T14:25:31.744Z,1.00
2022-10-16T14:28:29.206Z,1.60
2022-10-16T14:31:33.706Z,4.00
2022-10-16T14:34:55.805Z,3.80
2022-10-16T14:37:54.702Z,3.80
2022-10-16T14:40:52.021Z,1.00
2022-10-16T14:43:54.348Z,2.20
2022-10-16T14:46:51.116Z,1.00
2022-10-16T14:49:48.465Z,1.60
2022-10-16T14:52:45.191Z,1.00
2022-10-16T14:55:42.890Z,1.00
2022-10-16T14:58:40.597Z,1.00
2022-10-16T15:01:37.308Z,1.60
2022-10-16T15:04:34.189Z,4.00
2022-10-16T15:07:31.505Z,0.60
2022-10-16T15:10:29.000Z,1.00
2022-10-16T15:13:26.741Z,2.00
2022-10-16T15:16:23.647Z,1.40
2022-10-16T15:19:20.329Z,2.40
2022-10-16T15:22:17.099Z,2.00
2022-10-16T15:25:26.779Z,0.40
2022-10-16T15:28:25.039Z,0.00
2022-10-16T15:31:23.456Z,0.60
2022-10-16T15:34:20.774Z,1.20
2022-10-16T15:37:20.034Z,2.00
2022-10-16T15:40:18.387Z,1.00
2022-10-16T15:43:15.609Z,0.00
2022-10-16T15:46:13.381Z,0.80
2022-10-16T15:49:10.806Z,2.00
2022-10-16T15:52:08.319Z,0.40
2022-10-16T15:55:08.865Z,1.00
2022-10-16T15:58:06.547Z,0.00
2022-10-16T16:01:04.574Z,1.20
2022-10-16T16:04:02.973Z,0.00
2022-10-16T16:07:04.611Z,1.00
2022-10-16T16:10:02.032Z,1.20
2022-10-16T16:13:00.198Z,1.40
2022-10-16T16:15:57.623Z,0.80
2022-10-16T16:18:54.466Z,1.40
2022-10-16T16:21:51.446Z,3.00
2022-10-16T16:24:48.291Z,1.60
2022-10-16T16:27:45.484Z,2.00
2022-10-16T16:30:42.523Z,3.60
2022-10-16T16:33:39.504Z,2.20
2022-10-16T16:36:36.610Z,1.80
2022-10-16T16:39:33.223Z,0.00
2022-10-16T16:42:30.725Z,3.60
2022-10-16T16:48:25.460Z,2.00
2022-10-16T16:51:22.961Z,2.60
2022-10-16T16:54:20.943Z,2.80
2022-10-16T16:57:21.276Z,3.00
2022-10-16T17:00:18.765Z,7.00
2022-10-16T17:03:15.422Z,15.60
2022-10-16T17:06:12.706Z,18.40
2022-10-16T17:09:10.573Z,26.00
2022-10-16T17:12:07.509Z,26.40
2022-10-16T17:15:05.067Z,35.60
2022-10-16T17:18:02.894Z,39.20
2022-10-16T17:21:01.318Z,45.40
2022-10-16T17:23:58.684Z,49.40
2022-10-16T17:26:55.595Z,47.40
2022-10-16T17:29:52.791Z,39.60
2022-10-16T17:32:49.535Z,30.00
2022-10-16T17:35:47.140Z,50.60
2022-10-16T17:38:44.632Z,42.40
2022-10-16T17:41:41.556Z,47.40
2022-10-16T17:44:38.892Z,39.60
2022-10-16T17:47:35.423Z,40.80
2022-10-16T17:50:32.391Z,30.20
2022-10-16T17:53:29.605Z,30.60
2022-10-16T17:56:26.577Z,34.00
2022-10-16T17:59:23.475Z,27.60
2022-10-16T18:02:20.504Z,22.20
2022-10-16T18:05:17.202Z,20.40
2022-10-16T18:08:14.726Z,12.40
2022-10-16T18:11:11.571Z,6.00
2022-10-16T18:14:08.683Z,13.20
2022-10-16T18:17:06.040Z,17.40
2022-10-16T18:20:05.226Z,15.00
2022-10-16T18:23:02.281Z,10.40
2022-10-16T18:29:02.724Z,14.60
2022-10-16T18:31:59.949Z,12.40
2022-10-16T18:34:57.636Z,13.40
2022-10-16T18:37:59.019Z,14.60
2022-10-16T18:40:57.400Z,15.80
2022-10-16T18:43:54.734Z,15.20
2022-10-16T18:46:52.643Z,9.80
2022-10-16T18:49:50.171Z,5.80
2022-10-16T18:52:48.822Z,9.00
2022-10-16T18:55:52.893Z,10.80
2022-10-16T18:58:50.334Z,8.60
2022-10-16T19:01:48.988Z,8.40
2022-10-16T19:04:46.562Z,7.20
2022-10-16T19:07:46.092Z,4.80
2022-10-16T19:10:43.883Z,5.60
2022-10-16T19:13:40.490Z,7.80
2022-10-16T19:16:38.176Z,6.40
2022-10-16T19:19:38.280Z,10.00
2022-10-16T19:22:52.753Z,8.40
2022-10-16T19:25:49.891Z,6.20
2022-10-16T19:28:46.597Z,5.20
2022-10-16T19:31:43.331Z,8.20
2022-10-16T19:34:40.695Z,9.40
2022-10-16T19:37:38.247Z,10.80
2022-10-16T19:40:35.360Z,10.00
2022-10-16T19:43:32.961Z,14.00
2022-10-16T19:46:30.384Z,8.80
2022-10-16T19:49:27.859Z,10.80
2022-10-16T19:52:25.306Z,11.40
2022-10-16T19:55:23.067Z,10.00
2022-10-16T19:58:20.620Z,10.00
2022-10-16T20:01:18.011Z,7.80
2022-10-16T20:04:15.631Z,15.00
2022-10-16T20:07:12.677Z,9.40
2022-10-16T20:10:09.846Z,9.80
2022-10-16T20:13:08.281Z,8.60
2022-10-16T20:16:06.118Z,9.80
2022-10-16T20:19:03.968Z,8.20
2022-10-16T20:22:01.235Z,7.00
2022-10-16T20:24:58.848Z,4.20
2022-10-16T20:27:55.869Z,5.60
2022-10-16T20:30:52.757Z,9.80
2022-10-16T20:33:50.601Z,7.60
2022-10-16T20:36:47.729Z,7.00
2022-10-16T20:39:44.793Z,7.40
2022-10-16T20:42:41.486Z,9.80
2022-10-16T20:45:38.808Z,9.80
2022-10-16T20:48:35.899Z,10.00
2022-10-16T20:51:32.797Z,9.20
2022-10-16T20:54:29.717Z,15.80
2022-10-16T20:57:26.752Z,17.40
2022-10-16T21:00:23.689Z,15.40
2022-10-16T21:03:20.404Z,13.80
2022-10-16T21:06:17.682Z,12.00
2022-10-16T21:09:15.030Z,10.60
2022-10-16T21:12:11.701Z,15.60
2022-10-16T21:15:14.915Z,14.20
2022-10-16T21:18:12.952Z,12.40
2022-10-16T21:21:10.965Z,13.00
2022-10-16T21:24:11.944Z,12.40
2022-10-16T21:27:11.890Z,13.40
2022-10-16T21:30:09.616Z,12.60
2022-10-16T21:33:06.797Z,11.40
2022-10-16T21:36:11.611Z,16.00
2022-10-16T21:39:13.039Z,9.00
2022-10-16T21:42:09.603Z,11.60
2022-10-16T21:45:06.777Z,7.60
2022-10-16T21:48:04.243Z,13.60
2022-10-16T21:51:01.689Z,9.00
2022-10-16T21:53:58.893Z,8.60
2022-10-16T21:56:56.988Z,7.60
2022-10-16T21:59:53.822Z,10.00
2022-10-16T22:02:51.070Z,9.60
2022-10-16T22:05:47.548Z,8.00
2022-10-16T22:08:45.959Z,14.20
2022-10-16T22:11:44.039Z,10.60
2022-10-16T22:14:41.041Z,7.80
2022-10-16T22:17:37.844Z,6.60
2022-10-16T22:20:34.625Z,9.80
2022-10-16T22:23:31.607Z,5.80
2022-10-16T22:26:28.490Z,7.60
2022-10-16T22:29:26.082Z,4.80
2022-10-16T22:32:22.969Z,4.00
2022-10-16T22:35:19.549Z,8.00
2022-10-16T22:38:16.640Z,5.80
2022-10-16T22:41:14.574Z,7.20
2022-10-16T22:44:12.709Z,8.00
2022-10-16T22:47:09.591Z,9.00
2022-10-16T22:50:07.559Z,10.20
2022-10-16T22:53:05.005Z,8.20
2022-10-16T22:56:01.635Z,10.80
2022-10-16T22:58:58.828Z,11.00
2022-10-16T23:01:55.803Z,12.00
2022-10-16T23:04:53.050Z,11.80
2022-10-16T23:07:50.030Z,14.60
2022-10-16T23:10:47.435Z,9.40
2022-10-16T23:13:47.835Z,14.20
2022-10-16T23:16:44.586Z,10.60
2022-10-16T23:19:41.574Z,10.40
2022-10-16T23:22:38.722Z,15.20
2022-10-16T23:25:35.962Z,10.40
2022-10-16T23:28:32.976Z,12.40
2022-10-16T23:31:29.761Z,13.40
2022-10-16T23:34:27.060Z,11.80
2022-10-16T23:37:24.094Z,11.60
2022-10-16T23:40:20.920Z,8.80
2022-10-16T23:43:17.555Z,12.40
2022-10-16T23:46:15.242Z,12.60
2022-10-16T23:49:12.913Z,10.60
2022-10-16T23:52:09.829Z,13.40
2022-10-16T23:55:07.388Z,9.20
2022-10-16T23:58:04.932Z,13.20
